메인 페이지
METAR-TAF:

METAR-TAF

공항 :

마이두구리, 나이지리아

위도: 11-51N, 경도: 013-05E, 고도: 354m

METAR: 누락

시각: 10:45 (09:45 UTC)

예보

예보는 4 시간 45분 전, 05:00시(UTC)에 발표되었습니다.
예보 대상 시간: 02일 06시부터 03일 12시까지 (UTC)
서남서8kt
시정 10km 이상
1500m 미만 상공 구름 및 적란운 없음
일시적
02일 14시부터 02일 19시까지 (UTC)
고도 1300ft 상공 구름 보통
고도 2000ft 상공 구름 조금, 적란운.
뇌우
전환 중
02일 22시부터 02일 24시까지 (UTC)
고도 1200ft 상공 구름 조금

TAF: DNMA 020500Z 0206/0312 25008KT CAVOK TEMPO 0214/0219 TS SCT013 FEW020CB BECMG 0222/0224 FEW012

4,000개 이상의 공항 관측 자료 및 예보 (METAR 및 TAF 보고).

지도상에서 검색 가능한 기상관측소가 노란 점과 빨간 점으로 표시되어 있습니다.

기상관측소 명을 보려면 표시 위로 마우스를 이동하세요.

날씨 관측과 예보를 보려면 클릭하세요.

지도 변경 : 확대하려면 엑스 표시가 있는 녹색 버튼, 축소하려면 빼기 표시가 있는 녹색 버튼, 다음 페이지의 지도를 보려면 녹색 화살표를 클릭하세요.


METAR-TAF: